KCNK/CNK METAR and TAF weather

Enter ICAO airport designator
Station Type Date Time Source
KCNK METAR 2018/09/21 22:55 UTC NOAA

KCNK 212255Z AUTO 03010KT 10SM CLR 20/08 A3025 RMK AO2 SLP235 T02000078


Station Type Date Time Source
KCNK Decoded METAR 2018/09/21 22:55 UTC NOAA

Concordia, Blosser Municipal Airport, KS, United States (KCNK) 39-33-05N 097-39-02W 447M
Sep 21, 2018 - 06:55 PM EDT / 2018.09.21 2255 UTC
Wind: from the NNE (030 degrees) at 12 MPH (10 KT):0
Visibility: 10 mile(s):0
Sky conditions: clear
Temperature: 68.0 F (20.0 C)
Dew Point: 46.0 F (7.8 C)
Relative Humidity: 45%
Pressure (altimeter): 30.25 in. Hg (1024 hPa)
ob: KCNK 212255Z AUTO 03010KT 10SM CLR 20/08 A3025 RMK AO2 SLP235 T02000078
cycle: 23

Station Type Date Time Source
KCNK TAF UTC NOAA

Error!


Example: see airport list